Time;durP1;ratioP1;P1;durP2;ratioP2;P2;SDS_P1;SDS_P2;PMS_P1;PMS_P2;Temp;Humidity;BMP_temperature;BMP_pressure;BME280_temperature;BME280_humidity;BME280_pressure;Samples;Min_cycle;Max_cycle;Signal;HPM_P1;HPM_P2
2022/07/09 00:00:35;;;;;;;16.73;15.03;;;;;;;20.55;61.62;100156.02;1679527;85;21371;-56
2022/07/09 00:03:41;;;;;;;16.93;15.23;;;;;;;20.53;61.75;100147.08;1706166;82;21312;-58
2022/07/09 00:06:47;;;;;;;19.15;15.10;;;;;;;20.54;61.94;100148.75;1715811;82;21362;-58
2022/07/09 00:09:53;;;;;;;17.23;14.87;;;;;;;20.53;62.05;100139.55;1711278;82;21221;-57
2022/07/09 00:12:58;;;;;;;17.65;15.28;;;;;;;20.52;62.12;100134.23;1701397;83;21211;-57
2022/07/09 00:16:08;;;;;;;17.32;15.38;;;;;;;20.50;62.21;100127.53;1703132;84;21183;-59
2022/07/09 00:19:15;;;;;;;16.62;14.90;;;;;;;20.46;62.31;100131.05;1682835;84;21284;-58
2022/07/09 00:22:20;;;;;;;16.48;14.55;;;;;;;20.44;62.42;100134.63;1711979;83;21349;-59
2022/07/09 00:25:27;;;;;;;16.73;14.93;;;;;;;20.43;62.54;100137.11;1706638;83;21235;-57
2022/07/09 00:28:34;;;;;;;19.12;15.38;;;;;;;20.43;62.70;100130.16;1708412;82;21204;-58
2022/07/09 00:31:40;;;;;;;16.23;13.58;;;;;;;20.40;62.72;100141.24;1706262;83;21271;-57
2022/07/09 00:34:47;;;;;;;18.60;14.60;;;;;;;20.34;62.78;100141.38;1705943;83;21224;-57
2022/07/09 00:37:53;;;;;;;16.75;14.83;;;;;;;20.30;62.87;100144.33;1708327;83;21235;-57
2022/07/09 00:40:58;;;;;;;21.57;15.58;;;;;;;20.27;63.02;100140.65;1706851;83;21212;-56
2022/07/09 00:44:05;;;;;;;16.30;14.47;;;;;;;20.22;63.10;100136.36;1713838;82;21272;-56
2022/07/09 00:47:14;;;;;;;18.95;16.42;;;;;;;20.18;63.23;100137.42;1750015;79;21370;-57
2022/07/09 00:50:21;;;;;;;17.20;15.35;;;;;;;20.14;63.33;100135.34;1757410;80;21197;-57
2022/07/09 00:53:30;;;;;;;17.87;15.23;;;;;;;20.10;63.43;100135.52;1745531;81;21721;-57
2022/07/09 00:56:36;;;;;;;16.82;14.58;;;;;;;20.06;63.53;100142.09;1738969;81;21170;-56
2022/07/09 00:59:42;;;;;;;19.87;14.98;;;;;;;20.03;63.64;100140.34;1738618;81;21288;-57
2022/07/09 01:02:48;;;;;;;17.10;15.30;;;;;;;19.99;63.77;100138.61;1741335;81;21189;-57
2022/07/09 01:05:56;;;;;;;16.97;15.15;;;;;;;19.98;63.89;100138.30;1739930;81;21324;-57
2022/07/09 01:09:02;;;;;;;16.73;15.03;;;;;;;20.00;64.02;100140.83;1738567;81;21398;-56
2022/07/09 01:12:08;;;;;;;18.60;15.05;;;;;;;19.98;64.08;100140.25;1740627;82;21256;-57
2022/07/09 01:15:16;;;;;;;16.00;13.95;;;;;;;19.97;64.16;100134.38;1733119;81;21215;-58
2022/07/09 01:18:23;;;;;;;16.70;14.90;;;;;;;19.94;64.25;100133.47;1738111;81;21360;-56
2022/07/09 01:21:30;;;;;;;18.77;15.08;;;;;;;19.92;64.36;100138.41;1745973;81;21181;-58
2022/07/09 01:24:37;;;;;;;16.67;15.08;;;;;;;19.91;64.44;100138.98;1739337;81;21387;-57
2022/07/09 01:27:44;;;;;;;17.17;15.48;;;;;;;19.89;64.43;100131.42;1738325;82;21317;-57
2022/07/09 01:30:50;;;;;;;17.67;15.68;;;;;;;19.82;64.46;100132.64;1739380;81;21166;-58
2022/07/09 01:33:58;;;;;;;16.20;14.53;;;;;;;19.77;64.60;100122.79;1738080;81;21265;-56
2022/07/09 01:37:05;;;;;;;17.65;14.50;;;;;;;19.74;64.74;100129.66;1738406;81;21193;-56
2022/07/09 01:40:12;;;;;;;15.85;14.23;;;;;;;19.74;64.85;100119.11;1738253;81;21292;-56
2022/07/09 01:43:18;;;;;;;18.17;15.15;;;;;;;19.75;64.99;100131.90;1728638;81;21710;-57
2022/07/09 01:46:24;;;;;;;18.77;14.90;;;;;;;19.73;65.04;100125.73;1739581;81;21189;-58
2022/07/09 01:49:30;;;;;;;20.85;15.60;;;;;;;19.70;65.08;100127.61;1742582;80;21197;-55
2022/07/09 01:52:37;;;;;;;17.40;15.50;;;;;;;19.68;65.16;100148.67;1697550;84;21209;-56
2022/07/09 01:55:43;;;;;;;19.07;16.45;;;;;;;19.69;65.32;100187.03;1706056;84;21201;-58
2022/07/09 01:58:49;;;;;;;17.32;14.93;;;;;;;19.71;65.45;100179.31;1774574;79;21192;-57
2022/07/09 02:01:56;;;;;;;19.85;15.30;;;;;;;19.73;65.55;100172.42;1774729;80;21733;-58
2022/07/09 02:05:02;;;;;;;18.05;15.05;;;;;;;19.77;65.68;100226.97;1737322;81;21236;-57
2022/07/09 02:08:08;;;;;;;19.90;15.35;;;;;;;19.85;65.79;100215.50;1741731;81;21240;-57
2022/07/09 02:11:15;;;;;;;17.07;14.95;;;;;;;19.91;65.91;100218.17;1750501;81;21343;-56
2022/07/09 02:14:21;;;;;;;15.93;13.95;;;;;;;19.98;66.00;100225.00;1740283;81;21224;-56
2022/07/09 02:17:29;;;;;;;18.55;14.73;;;;;;;20.05;66.08;100188.20;1741201;82;21328;-56
2022/07/09 02:20:35;;;;;;;17.12;13.80;;;;;;;20.11;66.09;100169.16;1774721;81;21197;-57
2022/07/09 02:23:41;;;;;;;18.10;15.30;;;;;;;20.16;66.16;100185.98;1737937;81;21229;-58
2022/07/09 02:26:47;;;;;;;16.30;14.73;;;;;;;20.22;66.24;100219.76;1774239;81;21180;-59
2022/07/09 02:29:54;;;;;;;17.98;13.98;;;;;;;20.28;66.27;100229.94;1736877;81;21269;-57
2022/07/09 02:33:00;;;;;;;17.98;15.08;;;;;;;20.33;66.31;100196.66;1774759;79;21180;-56
2022/07/09 02:36:08;;;;;;;16.62;14.28;;;;;;;20.40;66.32;100175.14;1736519;82;21170;-56
2022/07/09 02:39:16;;;;;;;17.12;15.30;;;;;;;20.46;66.35;100175.55;1737828;81;21339;-57
2022/07/09 02:42:22;;;;;;;16.32;14.45;;;;;;;20.52;66.41;100190.72;1735971;82;21375;-58
2022/07/09 02:45:28;;;;;;;17.80;15.38;;;;;;;20.61;66.46;100210.10;1737885;82;21245;-57
2022/07/09 02:48:35;;;;;;;16.27;14.53;;;;;;;20.68;66.49;100212.75;1706280;82;21383;-56
2022/07/09 02:51:42;;;;;;;20.55;15.30;;;;;;;20.79;66.50;100202.13;1769921;80;21303;-56
2022/07/09 02:54:49;;;;;;;18.37;15.55;;;;;;;20.88;66.50;100190.08;1735500;82;21184;-58
2022/07/09 02:57:55;;;;;;;16.67;13.95;;;;;;;20.96;66.48;100196.14;1778001;80;21183;-57
2022/07/09 03:01:05;;;;;;;17.87;14.40;;;;;;;21.06;66.47;100182.41;1778024;80;21720;-57
2022/07/09 03:04:12;;;;;;;18.82;14.18;;;;;;;21.13;66.41;100171.98;1769548;81;21204;-57
2022/07/09 03:07:19;;;;;;;14.95;13.40;;;;;;;21.21;66.41;100189.67;1752807;80;21335;-57
2022/07/09 03:10:26;;;;;;;17.95;14.20;;;;;;;21.28;66.41;100200.09;1751946;81;21271;-56
2022/07/09 03:13:31;;;;;;;16.35;14.65;;;;;;;21.38;66.47;100197.52;1752659;80;21149;-56
2022/07/09 03:16:37;;;;;;;17.02;14.50;;;;;;;21.44;66.43;100174.22;1769418;80;21192;-56
2022/07/09 03:19:42;;;;;;;15.85;13.80;;;;;;;21.48;66.36;100175.95;1767731;81;21256;-56
2022/07/09 03:22:49;;;;;;;19.02;13.70;;;;;;;21.48;66.32;100196.85;1769348;81;21193;-57
2022/07/09 03:25:55;;;;;;;17.00;13.78;;;;;;;21.48;66.35;100198.24;1777687;80;21153;-56
2022/07/09 03:29:01;;;;;;;18.80;15.23;;;;;;;21.49;66.40;100186.84;1769197;81;21216;-57
2022/07/09 03:32:09;;;;;;;26.05;18.75;;;;;;;21.51;66.41;100182.42;1734946;82;21216;-58
2022/07/09 03:35:16;;;;;;;24.12;18.73;;;;;;;21.48;66.42;100189.35;1743451;82;21195;-58
2022/07/09 03:38:22;;;;;;;18.75;16.82;;;;;;;21.49;66.48;100188.78;1743328;81;21365;-57
2022/07/09 03:41:30;;;;;;;21.17;15.90;;;;;;;21.53;66.57;100182.45;1735355;81;21177;-57
2022/07/09 03:44:36;;;;;;;18.02;15.70;;;;;;;21.56;66.58;100172.22;1769511;81;21193;-56
2022/07/09 03:47:43;;;;;;;22.58;16.57;;;;;;;21.53;66.57;100185.80;1769121;80;21196;-56
2022/07/09 03:50:48;;;;;;;20.27;16.48;;;;;;;21.55;66.70;100196.98;1768459;80;21197;-57
2022/07/09 03:53:55;;;;;;;19.20;16.75;;;;;;;21.61;66.74;100192.36;1774721;79;21409;-56
2022/07/09 03:57:01;;;;;;;21.70;16.25;;;;;;;21.64;66.74;100173.20;1774769;81;21398;-57
2022/07/09 04:00:10;;;;;;;19.67;16.00;;;;;;;21.66;66.74;100166.80;1739229;81;21308;-55
2022/07/09 04:03:19;;;;;;;19.17;16.45;;;;;;;21.69;66.76;100177.44;1737988;81;21255;-57
2022/07/09 04:06:25;;;;;;;20.45;16.45;;;;;;;21.74;66.83;100180.31;1774239;81;21200;-58
2022/07/09 04:09:34;;;;;;;20.43;16.97;;;;;;;21.78;66.83;100187.66;1774308;79;21228;-56
2022/07/09 04:12:39;;;;;;;18.00;16.12;;;;;;;21.77;66.81;100175.66;1774194;81;21248;-57
2022/07/09 04:15:47;;;;;;;23.65;18.00;;;;;;;21.77;66.84;100178.45;1736819;82;21249;-57
2022/07/09 04:18:54;;;;;;;18.98;16.82;;;;;;;21.78;66.88;100179.30;1740553;81;21264;-58
2022/07/09 04:22:02;;;;;;;20.08;18.05;;;;;;;21.80;66.90;100189.09;1774520;80;21260;-58
2022/07/09 04:25:10;;;;;;;19.42;17.42;;;;;;;21.82;66.97;100198.05;1741531;81;21229;-57
2022/07/09 04:28:21;;;;;;;19.40;17.37;;;;;;;21.88;67.03;100203.99;1787331;79;21845;-57
2022/07/09 04:31:31;;;;;;;20.20;17.67;;;;;;;21.96;67.07;100201.35;1803500;79;21276;-59
2022/07/09 04:34:37;;;;;;;19.27;17.23;;;;;;;21.99;67.08;100180.75;1767746;81;21229;-57
2022/07/09 04:37:43;;;;;;;21.07;17.73;;;;;;;22.03;67.07;100183.34;1767993;80;21174;-57
2022/07/09 04:40:51;;;;;;;19.30;17.23;;;;;;;22.07;67.06;100193.44;1766486;80;21177;-61
2022/07/09 04:43:57;;;;;;;18.87;16.57;;;;;;;22.08;67.02;100195.12;1803632;79;21208;-58
2022/07/09 04:47:03;;;;;;;21.23;16.97;;;;;;;22.11;67.09;100186.24;1766278;81;21169;-57
2022/07/09 04:50:10;;;;;;;18.98;16.20;;;;;;;22.16;67.15;100176.03;1789356;79;21248;-57
2022/07/09 04:53:17;;;;;;;23.85;17.05;;;;;;;22.22;67.10;100181.11;1774254;79;21173;-57
2022/07/09 04:56:25;;;;;;;20.25;16.02;;;;;;;22.25;67.11;100171.41;1768025;80;21798;-56
2022/07/09 04:59:30;;;;;;;21.35;16.90;;;;;;;22.32;67.14;100187.39;1768916;79;21186;-57
2022/07/09 05:02:36;;;;;;;20.48;15.95;;;;;;;22.39;67.17;100185.27;1769776;79;21182;-59
2022/07/09 05:05:43;;;;;;;22.02;16.52;;;;;;;22.44;67.14;100179.20;1769443;79;21703;-58
2022/07/09 05:08:51;;;;;;;20.35;15.80;;;;;;;22.46;67.14;100168.63;1776919;79;21252;-57
2022/07/09 05:11:58;;;;;;;20.00;15.30;;;;;;;22.52;67.15;100169.56;1776738;79;21217;-59
2022/07/09 05:15:07;;;;;;;19.23;16.02;;;;;;;22.60;67.16;100166.33;1810564;78;21437;-58
2022/07/09 05:18:18;;;;;;;19.02;14.70;;;;;;;22.68;67.13;100169.52;1774382;80;21622;-58
2022/07/09 05:21:25;;;;;;;18.20;16.27;;;;;;;22.75;67.11;100174.36;1748371;81;21830;-57
2022/07/09 05:24:32;;;;;;;17.48;15.40;;;;;;;22.85;67.13;100170.86;1731705;81;21200;-58
2022/07/09 05:27:39;;;;;;;19.17;15.48;;;;;;;22.95;67.09;100168.16;1707074;81;21269;-58
2022/07/09 05:30:46;;;;;;;17.92;15.53;;;;;;;22.96;67.02;100142.77;1812394;79;21224;-57
2022/07/09 05:34:00;;;;;;;16.87;15.18;;;;;;;22.96;66.93;100151.72;1811341;78;21196;-58
2022/07/09 05:37:06;;;;;;;17.82;16.00;;;;;;;23.00;66.99;100157.91;1776388;79;21256;-59
2022/07/09 05:40:14;;;;;;;21.93;15.00;;;;;;;23.09;67.02;100151.28;1790384;79;21351;-56
2022/07/09 05:43:22;;;;;;;18.57;15.55;;;;;;;23.22;67.06;100129.92;1784085;79;21232;-56
2022/07/09 05:46:29;;;;;;;18.35;14.98;;;;;;;23.39;67.16;100134.86;1783272;79;21201;-56
2022/07/09 05:49:36;;;;;;;19.02;15.05;;;;;;;23.53;67.11;100144.52;1778989;80;21295;-57
2022/07/09 05:52:46;;;;;;;18.15;14.38;;;;;;;23.64;66.99;100146.29;1758682;79;21251;-57
2022/07/09 05:55:53;;;;;;;21.87;15.00;;;;;;;23.72;66.89;100131.83;1727493;82;21165;-58
2022/07/09 05:59:02;;;;;;;21.20;15.28;;;;;;;23.82;66.83;100131.06;1746881;81;21216;-56
2022/07/09 06:02:12;;;;;;;18.62;15.13;;;;;;;23.92;66.73;100138.95;1747205;82;21192;-56
2022/07/09 06:05:19;;;;;;;21.15;14.75;;;;;;;24.02;66.73;100137.67;1735236;82;21300;-57
2022/07/09 06:08:27;;;;;;;20.10;15.80;;;;;;;24.10;66.61;100132.94;1777439;80;21239;-58
2022/07/09 06:11:44;;;;;;;17.30;14.58;;;;;;;24.17;66.55;100127.97;1766934;80;21745;-58
2022/07/09 06:14:52;;;;;;;23.30;15.90;;;;;;;24.27;66.50;100126.64;1775185;81;21701;-58
2022/07/09 06:18:08;;;;;;;18.52;15.28;;;;;;;24.38;66.40;100124.72;1768086;80;21214;-56
2022/07/09 06:21:21;;;;;;;17.87;14.28;;;;;;;24.43;66.29;100126.16;1751721;81;21181;-55
2022/07/09 06:24:27;;;;;;;15.83;13.88;;;;;;;24.52;66.30;100129.56;1750973;81;21377;-58
2022/07/09 06:27:47;;;;;;;20.77;15.00;;;;;;;24.63;66.22;100138.28;1751189;81;21796;-59
2022/07/09 06:31:01;;;;;;;18.20;14.07;;;;;;;24.71;66.09;100123.80;1775687;81;21224;-58
2022/07/09 06:34:08;;;;;;;16.25;14.55;;;;;;;24.79;66.03;100118.21;1762638;81;21264;-58
2022/07/09 06:37:20;;;;;;;19.37;14.47;;;;;;;24.95;66.11;100112.94;1768135;80;21204;-57
2022/07/09 06:40:27;;;;;;;16.67;13.70;;;;;;;25.03;65.91;100117.45;1767910;80;21271;-59
2022/07/09 06:43:36;;;;;;;23.10;14.83;;;;;;;25.11;65.72;100115.22;1768215;80;21225;-58
2022/07/09 06:46:43;;;;;;;17.05;14.05;;;;;;;25.16;65.68;100119.44;1767867;80;21321;-58
2022/07/09 06:49:51;;;;;;;19.30;13.48;;;;;;;25.18;65.54;100120.00;1767752;80;21287;-58
2022/07/09 06:52:59;;;;;;;20.02;14.40;;;;;;;25.20;65.43;100114.39;1768763;80;21209;-58
2022/07/09 06:56:09;;;;;;;21.87;14.63;;;;;;;25.25;65.44;100119.16;1764329;79;21202;-58
2022/07/09 06:59:19;;;;;;;15.30;13.13;;;;;;;25.29;65.35;100125.91;1766889;80;21268;-56
2022/07/09 07:02:33;;;;;;;16.30;13.22;;;;;;;25.30;65.31;100121.97;1769461;80;21214;-58
2022/07/09 07:05:44;;;;;;;17.67;13.93;;;;;;;25.39;65.39;100121.73;1799092;79;21323;-57
2022/07/09 07:08:55;;;;;;;15.13;13.55;;;;;;;25.44;65.35;100129.59;1804012;79;21272;-57
2022/07/09 07:12:07;;;;;;;17.30;13.45;;;;;;;25.57;65.46;100123.45;1768478;80;21260;-57
2022/07/09 07:15:16;;;;;;;20.40;13.53;;;;;;;25.73;65.55;100117.27;1804365;79;21599;-58
2022/07/09 07:18:27;;;;;;;17.37;13.60;;;;;;;25.88;65.49;100122.30;1745895;80;21348;-56
2022/07/09 07:21:33;;;;;;;18.50;12.43;;;;;;;26.00;65.29;100127.66;1803619;79;21690;-57
2022/07/09 07:24:43;;;;;;;16.40;13.38;;;;;;;26.04;65.02;100131.02;1768287;80;21261;-56
2022/07/09 07:27:55;;;;;;;17.80;12.75;;;;;;;26.00;64.79;100118.69;1759660;80;21387;-56
2022/07/09 07:31:03;;;;;;;16.00;12.55;;;;;;;26.01;64.83;100124.56;1767230;80;21731;-55
2022/07/09 07:34:11;;;;;;;18.12;12.93;;;;;;;26.10;64.87;100124.84;1735830;82;21206;-57
2022/07/09 07:37:22;;;;;;;21.30;13.13;;;;;;;26.17;64.75;100126.77;1776685;80;21730;-56
2022/07/09 07:40:42;;;;;;;15.28;12.03;;;;;;;26.24;64.67;100124.52;1732105;82;21278;-58
2022/07/09 07:43:49;;;;;;;17.27;12.20;;;;;;;26.34;64.72;100114.09;1767919;80;21399;-57
2022/07/09 07:46:58;;;;;;;17.00;12.75;;;;;;;26.42;64.55;100116.88;1770808;80;21359;-58
2022/07/09 07:50:08;;;;;;;17.17;13.15;;;;;;;26.41;64.30;100108.19;1768757;80;21268;-58
2022/07/09 07:53:15;;;;;;;17.07;12.05;;;;;;;26.44;64.31;100105.66;1759520;81;21222;-56
2022/07/09 07:56:24;;;;;;;16.35;12.05;;;;;;;26.47;64.18;100108.44;1779470;79;21833;-56
2022/07/09 07:59:29;;;;;;;16.93;13.03;;;;;;;26.50;64.19;100110.67;1771441;79;21706;-56
2022/07/09 08:02:25;;;;;;;20.08;13.22;;;;;;;26.53;64.15;100102.25;1768486;81;21188;-56
2022/07/09 08:05:18;;;;;;;14.63;12.93;;;;;;;26.64;64.33;100102.48;1767878;81;21347;-58
2022/07/09 08:08:27;;;;;;;17.42;12.53;;;;;;;26.72;64.27;100102.74;1768080;81;21401;-54
2022/07/09 08:11:34;;;;;;;19.40;12.70;;;;;;;26.74;64.09;100098.23;1758111;81;21574;-56
2022/07/09 08:14:43;;;;;;;15.32;12.23;;;;;;;26.77;64.02;100096.25;1763465;81;21622;-57
2022/07/09 08:17:53;;;;;;;18.42;12.37;;;;;;;26.83;63.97;100092.31;1784905;79;21197;-57
2022/07/09 08:21:00;;;;;;;16.45;14.07;;;;;;;26.87;63.81;100099.88;1759069;81;21180;-59
2022/07/09 08:24:18;;;;;;;18.48;13.70;;;;;;;26.93;63.76;100093.64;1779708;78;21244;-61
2022/07/09 08:27:29;;;;;;;15.10;12.90;;;;;;;27.06;64.02;100091.60;1770235;79;21358;-58
2022/07/09 08:30:38;;;;;;;18.50;12.40;;;;;;;27.24;64.02;100098.78;1785718;79;21204;-59
2022/07/09 08:33:44;;;;;;;14.43;12.03;;;;;;;27.35;63.77;100091.98;1775834;79;21189;-58
2022/07/09 08:36:52;;;;;;;18.48;12.15;;;;;;;27.48;63.72;100096.94;1752421;80;21339;-58
2022/07/09 08:39:58;;;;;;;15.35;12.50;;;;;;;27.58;63.41;100087.02;1784236;79;21225;-58
2022/07/09 08:43:05;;;;;;;15.13;12.10;;;;;;;27.64;63.24;100084.44;1772869;80;21189;-58
2022/07/09 08:46:13;;;;;;;16.37;12.25;;;;;;;27.76;63.26;100087.72;1811936;79;21344;-58
2022/07/09 08:49:20;;;;;;;17.23;13.03;;;;;;;27.91;63.20;100086.73;1787892;78;21386;-57
2022/07/09 08:52:23;;;;;;;15.90;12.43;;;;;;;28.02;62.93;100083.27;1779357;80;21338;-56
2022/07/09 08:55:29;;;;;;;16.85;12.23;;;;;;;28.04;62.62;100074.79;1816209;78;21732;-58
2022/07/09 08:58:37;;;;;;;14.55;11.18;;;;;;;28.07;62.43;100079.00;1785156;79;21286;-56
2022/07/09 09:01:43;;;;;;;15.83;11.53;;;;;;;28.14;62.36;100077.51;1738738;80;21394;-58
2022/07/09 09:04:49;;;;;;;13.25;11.28;;;;;;;28.22;62.29;100064.74;1778807;80;21228;-57
2022/07/09 09:07:57;;;;;;;16.50;11.90;;;;;;;28.31;62.22;100069.98;1738620;82;21362;-58
2022/07/09 09:11:06;;;;;;;13.98;11.35;;;;;;;28.42;62.11;100069.56;1795236;79;21344;-56
2022/07/09 09:14:13;;;;;;;18.52;11.60;;;;;;;28.54;61.99;100073.41;1778143;79;21347;-57
2022/07/09 09:17:20;;;;;;;16.67;10.70;;;;;;;28.64;61.88;100078.88;1729434;81;21225;-58
2022/07/09 09:20:25;;;;;;;16.20;11.38;;;;;;;28.71;61.68;100072.32;1749521;81;21809;-54
2022/07/09 09:23:33;;;;;;;12.85;11.03;;;;;;;28.77;61.46;100068.28;1767287;81;21217;-57
2022/07/09 09:26:38;;;;;;;11.80;10.45;;;;;;;28.88;61.36;100067.00;1768527;80;21205;-57
2022/07/09 09:29:47;;;;;;;16.07;11.08;;;;;;;29.01;61.19;100059.20;1733701;81;21216;-58
2022/07/09 09:33:08;;;;;;;12.75;10.05;;;;;;;29.19;61.06;100061.23;1766014;80;21327;-58
2022/07/09 09:36:15;;;;;;;15.07;10.60;;;;;;;29.31;60.82;100053.69;1741879;82;21709;-57
2022/07/09 09:39:32;;;;;;;15.28;10.45;;;;;;;29.44;60.63;100055.73;1751735;81;21351;-58
2022/07/09 09:42:45;;;;;;;15.00;11.05;;;;;;;29.55;60.40;100052.44;1773304;80;21176;-59
2022/07/09 09:45:51;;;;;;;13.95;9.95;;;;;;;29.63;60.20;100050.89;1773213;80;21173;-59
2022/07/09 09:48:57;;;;;;;12.73;9.88;;;;;;;29.71;60.06;100045.42;1767493;79;21354;-59
2022/07/09 09:52:17;;;;;;;17.17;10.60;;;;;;;29.87;59.84;100049.64;1754371;81;21234;-59
2022/07/09 09:55:26;;;;;;;14.65;9.30;;;;;;;30.06;59.63;100052.38;1773127;80;21716;-57
2022/07/09 09:58:33;;;;;;;14.03;9.83;;;;;;;30.36;59.10;100041.92;1783234;78;21169;-57
2022/07/09 10:01:40;;;;;;;12.90;9.25;;;;;;;30.36;59.10;100041.92;1801278;79;21330;-57
2022/07/09 10:04:50;;;;;;;13.95;9.65;;;;;;;30.45;58.59;100043.69;1801391;78;21271;-57
2022/07/09 10:07:57;;;;;;;15.05;9.25;;;;;;;30.49;58.36;100033.42;1800096;79;21185;-58
2022/07/09 10:11:04;;;;;;;12.43;9.15;;;;;;;30.60;58.14;100034.88;1799507;79;21185;-59
2022/07/09 10:14:11;;;;;;;12.58;8.88;;;;;;;30.74;57.99;100032.04;1799825;78;21267;-57
2022/07/09 10:17:24;;;;;;;17.87;9.68;;;;;;;30.87;57.75;100019.06;1803844;79;21165;-58
2022/07/09 10:20:39;;;;;;;;;;;;;;;30.96;57.60;100024.20;1774204;81;21193;-57
2022/07/09 10:23:58;;;;;;;13.65;8.75;;;;;;;30.93;57.20;100017.21;1770306;79;20215;-57
2022/07/09 10:27:17;;;;;;;20.45;8.90;;;;;;;30.97;57.14;100025.90;1769632;80;21745;-58
2022/07/09 10:30:40;;;;;;;16.65;9.20;;;;;;;31.05;57.02;100016.66;1769552;80;21181;-56
2022/07/09 10:33:48;;;;;;;14.30;9.03;;;;;;;31.16;56.83;100016.67;1769640;80;21178;-57
2022/07/09 10:37:09;;;;;;;12.63;8.60;;;;;;;31.26;56.62;100013.56;1771320;80;21166;-57
2022/07/09 10:40:23;;;;;;;12.53;8.45;;;;;;;31.35;56.26;100006.03;1761568;80;21296;-55
2022/07/09 10:43:47;;;;;;;14.73;8.40;;;;;;;31.35;56.00;100006.03;1769454;80;21217;-59
2022/07/09 10:46:56;;;;;;;;;;;;;;;31.37;55.77;99992.38;1774147;80;21185;-58
2022/07/09 10:50:03;;;;;;;14.90;8.70;;;;;;;31.34;55.49;99988.78;1770820;80;20554;-57
2022/07/09 10:53:14;;;;;;;16.35;9.40;;;;;;;31.30;55.33;99987.17;1770047;80;21286;-56
2022/07/09 10:56:28;;;;;;;12.18;8.03;;;;;;;31.38;55.20;99984.16;1746877;80;21237;-58
2022/07/09 10:59:35;;;;;;;12.30;8.53;;;;;;;31.41;54.88;99984.33;1734672;80;21619;-60
2022/07/09 11:02:42;;;;;;;14.23;9.13;;;;;;;31.45;54.71;99976.04;1767329;80;21178;-60
2022/07/09 11:05:56;;;;;;;14.90;8.98;;;;;;;31.53;54.41;99966.77;1768593;80;21328;-58
2022/07/09 11:09:02;;;;;;;15.48;8.73;;;;;;;31.55;54.12;99972.95;1721431;82;22068;-58
2022/07/09 11:12:11;;;;;;;11.63;7.78;;;;;;;31.57;53.89;99969.23;1695797;84;21241;-58
2022/07/09 11:15:27;;;;;;;11.38;8.13;;;;;;;31.56;53.63;99966.12;1695481;83;21304;-57
2022/07/09 11:18:38;;;;;;;14.40;7.70;;;;;;;31.64;53.44;99963.34;1713052;81;21311;-55
2022/07/09 11:21:44;;;;;;;14.28;8.40;;;;;;;31.77;53.21;99965.83;1736484;82;21209;-56
2022/07/09 11:24:51;;;;;;;17.42;7.62;;;;;;;31.90;53.12;99959.27;1717787;82;21263;-57
2022/07/09 11:27:58;;;;;;;14.20;9.03;;;;;;;32.02;52.80;99958.05;1759000;80;21316;-56
2022/07/09 11:31:15;;;;;;;13.08;7.97;;;;;;;32.08;52.46;99961.59;1732033;82;21749;-57
2022/07/09 11:34:26;;;;;;;10.90;8.35;;;;;;;32.10;52.16;99956.41;1760868;80;21224;-57
2022/07/09 11:37:34;;;;;;;10.53;7.60;;;;;;;32.19;52.04;99958.70;1771257;80;21785;-58
2022/07/09 11:40:40;;;;;;;9.13;7.08;;;;;;;32.29;51.78;99959.80;1770437;80;21173;-57
2022/07/09 11:43:48;;;;;;;11.75;7.53;;;;;;;32.28;51.28;99956.16;1776816;79;21201;-56
2022/07/09 11:47:11;;;;;;;11.70;8.28;;;;;;;32.09;50.91;99955.59;1750791;81;21344;-56
2022/07/09 11:50:24;;;;;;;15.10;8.45;;;;;;;31.84;50.71;99951.48;1778261;79;21268;-55
2022/07/09 11:53:33;;;;;;;11.70;7.67;;;;;;;31.76;50.65;99951.42;1763409;80;21368;-56
2022/07/09 11:56:50;;;;;;;9.58;6.85;;;;;;;31.84;50.59;99944.40;1768135;80;21221;-58
2022/07/09 11:59:59;;;;;;;14.50;6.85;;;;;;;31.97;50.35;99940.63;1719037;82;21265;-56
2022/07/09 12:03:05;;;;;;;12.18;7.17;;;;;;;32.04;50.04;99937.33;1735589;81;21343;-57
2022/07/09 12:06:11;;;;;;;12.37;7.35;;;;;;;32.05;49.80;99936.15;1791382;79;21706;-56
2022/07/09 12:09:21;;;;;;;7.90;6.72;;;;;;;32.00;49.54;99923.55;1724502;79;21181;-56
2022/07/09 12:12:29;;;;;;;14.03;7.28;;;;;;;32.01;49.45;99922.41;1779569;79;21185;-57
2022/07/09 12:15:37;;;;;;;11.78;7.28;;;;;;;32.09;49.24;99916.51;1760338;80;21264;-58
2022/07/09 12:18:45;;;;;;;13.20;7.22;;;;;;;32.08;49.03;99913.43;1762253;80;21240;-57
2022/07/09 12:21:56;;;;;;;12.98;7.17;;;;;;;32.05;48.93;99909.84;1774249;80;21232;-58
2022/07/09 12:25:05;;;;;;;12.18;7.17;;;;;;;32.07;48.80;99901.83;1769873;79;21614;-56
2022/07/09 12:28:17;;;;;;;14.30;7.75;;;;;;;32.02;48.62;99911.31;1769906;80;21434;-57
2022/07/09 12:31:26;;;;;;;9.95;6.40;;;;;;;32.00;48.45;99905.14;1769314;81;21188;-56
2022/07/09 12:34:34;;;;;;;13.58;7.08;;;;;;;32.04;48.40;99894.84;1790282;79;21753;-56
2022/07/09 12:37:40;;;;;;;11.25;7.78;;;;;;;32.07;48.26;99892.76;1800404;79;21327;-57
2022/07/09 12:40:46;;;;;;;10.88;6.90;;;;;;;31.94;48.01;99884.64;1801292;79;21224;-56
2022/07/09 12:43:53;;;;;;;9.48;6.40;;;;;;;31.77;47.88;99879.47;1800904;78;21232;-58
2022/07/09 12:47:00;;;;;;;14.10;6.28;;;;;;;31.77;47.91;99883.72;1800798;79;21319;-57
2022/07/09 12:50:06;;;;;;;8.88;5.80;;;;;;;31.74;48.02;99882.39;1800922;78;21272;-57
2022/07/09 12:53:14;;;;;;;11.85;6.17;;;;;;;31.66;48.09;99882.34;1798544;79;21267;-56
2022/07/09 12:56:20;;;;;;;8.35;5.72;;;;;;;31.50;48.10;99876.85;1751309;81;21330;-57
2022/07/09 12:59:30;;;;;;;9.35;5.83;;;;;;;31.29;48.15;99857.31;1726741;82;21270;-57
2022/07/09 13:02:36;;;;;;;10.40;6.37;;;;;;;31.08;48.18;99857.63;1770826;79;21875;-56
2022/07/09 13:05:44;;;;;;;11.33;6.17;;;;;;;30.75;48.18;99852.78;1737770;82;21206;-56
2022/07/09 13:08:50;;;;;;;10.90;7.15;;;;;;;30.43;48.31;99873.64;1772605;79;21153;-56
2022/07/09 13:12:00;;;;;;;15.85;7.70;;;;;;;30.19;48.44;99872.22;1769707;80;21169;-56
2022/07/09 13:15:06;;;;;;;9.43;6.72;;;;;;;29.98;48.55;99877.48;1769838;79;21398;-57
2022/07/09 13:18:12;;;;;;;8.70;6.10;;;;;;;29.82;48.71;99872.47;1767597;80;21193;-56
2022/07/09 13:21:19;;;;;;;13.53;6.30;;;;;;;29.66;48.86;99887.47;1767602;80;21229;-56
2022/07/09 13:24:26;;;;;;;10.70;6.30;;;;;;;29.57;49.06;99904.00;1768056;80;21252;-56
2022/07/09 13:27:33;;;;;;;10.40;6.67;;;;;;;29.46;49.18;99962.61;1768694;80;21194;-55
2022/07/09 13:30:40;;;;;;;34.50;8.78;;;;;;;29.46;49.18;99962.61;1774801;80;21232;-54
2022/07/09 13:33:47;;;;;;;13.25;7.10;;;;;;;29.26;49.50;99957.31;1778034;80;21263;-53
2022/07/09 13:36:53;;;;;;;11.95;5.45;;;;;;;28.91;49.44;99961.55;1786498;79;21197;-53
2022/07/09 13:40:00;;;;;;;12.40;5.30;;;;;;;28.91;49.44;99961.55;1767141;80;21189;-53
2022/07/09 13:43:05;;;;;;;9.38;4.72;;;;;;;28.34;49.03;99960.39;1765775;81;21221;-53
2022/07/09 13:46:11;;;;;;;9.90;5.78;;;;;;;27.67;49.22;99969.91;1774328;79;21253;-54
2022/07/09 13:49:18;;;;;;;10.78;5.55;;;;;;;27.05;49.33;99966.28;1746692;82;21244;-54
2022/07/09 13:52:25;;;;;;;10.20;5.80;;;;;;;26.20;49.57;99946.59;1814218;77;21172;-54
2022/07/09 13:55:34;;;;;;;9.90;5.15;;;;;;;25.32;50.01;99938.98;1818597;78;21205;-54
2022/07/09 13:58:42;;;;;;;7.58;5.12;;;;;;;24.21;50.70;99912.30;1808987;79;21224;-55
2022/07/09 14:01:49;;;;;;;7.60;4.83;;;;;;;23.31;51.55;99885.31;1816628;78;21165;-54
2022/07/09 14:18:17;;;;;;;10.35;4.80;;;;;;;22.55;53.27;99859.36;1805368;79;28517;-55
2022/07/09 14:21:23;;;;;;;11.22;5.05;;;;;;;22.43;53.44;99858.64;1776830;80;21226;-54
2022/07/09 14:24:30;;;;;;;6.30;4.65;;;;;;;22.35;53.74;99866.95;1816287;79;21359;-55
2022/07/09 14:27:37;;;;;;;8.48;5.40;;;;;;;22.36;54.11;99873.38;1816188;79;21316;-55
2022/07/09 14:30:46;;;;;;;16.50;6.90;;;;;;;22.33;54.41;99872.48;1816211;79;21328;-54
2022/07/09 14:33:57;;;;;;;11.83;6.47;;;;;;;22.32;54.62;99868.02;1784434;80;21209;-55